sensor_id;sensor_type;location;lat;lon;timestamp;pressure;altitude;pressure_sealevel;temperature;humidity
2681;BME280;1350;42.134;24.708;2023-07-29T00:02:23;99103.59;;;23.36;50.84
2681;BME280;1350;42.134;24.708;2023-07-29T00:04:50;99098.66;;;23.23;51.05
2681;BME280;1350;42.134;24.708;2023-07-29T00:07:17;99098.34;;;23.10;51.52
2681;BME280;1350;42.134;24.708;2023-07-29T00:09:43;99095.47;;;23.12;51.76
2681;BME280;1350;42.134;24.708;2023-07-29T00:12:10;99095.81;;;23.17;51.53
2681;BME280;1350;42.134;24.708;2023-07-29T00:14:38;99092.78;;;23.20;51.72
2681;BME280;1350;42.134;24.708;2023-07-29T00:17:05;99089.03;;;23.05;52.09
2681;BME280;1350;42.134;24.708;2023-07-29T00:19:32;99086.88;;;22.92;52.38
2681;BME280;1350;42.134;24.708;2023-07-29T00:21:59;99088.06;;;22.74;53.16
2681;BME280;1350;42.134;24.708;2023-07-29T00:24:25;99101.09;;;22.78;53.28
2681;BME280;1350;42.134;24.708;2023-07-29T00:26:52;99106.66;;;22.77;53.87
2681;BME280;1350;42.134;24.708;2023-07-29T00:29:19;99100.22;;;22.70;53.81
2681;BME280;1350;42.134;24.708;2023-07-29T00:31:47;99106.47;;;22.62;53.84
2681;BME280;1350;42.134;24.708;2023-07-29T00:34:13;99098.38;;;22.70;53.73
2681;BME280;1350;42.134;24.708;2023-07-29T00:36:43;99113.06;;;22.84;53.42
2681;BME280;1350;42.134;24.708;2023-07-29T00:39:10;99113.56;;;22.63;53.76
2681;BME280;1350;42.134;24.708;2023-07-29T00:41:37;99109.63;;;22.50;54.44
2681;BME280;1350;42.134;24.708;2023-07-29T00:44:04;99102.81;;;22.30;55.60
2681;BME280;1350;42.134;24.708;2023-07-29T00:46:33;99110.28;;;22.44;56.02
2681;BME280;1350;42.134;24.708;2023-07-29T00:49:02;99111.66;;;22.48;55.91
2681;BME280;1350;42.134;24.708;2023-07-29T00:51:29;99097.34;;;22.55;55.93
2681;BME280;1350;42.134;24.708;2023-07-29T00:53:56;99106.47;;;22.62;55.96
2681;BME280;1350;42.134;24.708;2023-07-29T00:56:22;99096.00;;;22.67;55.91
2681;BME280;1350;42.134;24.708;2023-07-29T00:58:50;99101.22;;;22.61;56.13
2681;BME280;1350;42.134;24.708;2023-07-29T01:01:23;99094.44;;;22.49;56.17
2681;BME280;1350;42.134;24.708;2023-07-29T01:03:50;99101.34;;;22.35;56.11
2681;BME280;1350;42.134;24.708;2023-07-29T01:06:33;99095.06;;;22.27;56.09
2681;BME280;1350;42.134;24.708;2023-07-29T01:09:02;99096.69;;;22.04;56.39
2681;BME280;1350;42.134;24.708;2023-07-29T01:11:35;99098.53;;;21.95;57.14
2681;BME280;1350;42.134;24.708;2023-07-29T01:14:10;99103.75;;;21.97;56.97
2681;BME280;1350;42.134;24.708;2023-07-29T01:16:42;99098.31;;;21.89;57.73
2681;BME280;1350;42.134;24.708;2023-07-29T01:19:32;99088.88;;;21.93;58.21
2681;BME280;1350;42.134;24.708;2023-07-29T01:22:04;99096.69;;;22.04;58.56
2681;BME280;1350;42.134;24.708;2023-07-29T01:24:35;99100.47;;;22.19;58.33
2681;BME280;1350;42.134;24.708;2023-07-29T01:27:02;99107.91;;;22.33;58.02
2681;BME280;1350;42.134;24.708;2023-07-29T01:29:30;99100.28;;;22.28;58.19
2681;BME280;1350;42.134;24.708;2023-07-29T01:32:00;99107.72;;;22.18;58.75
2681;BME280;1350;42.134;24.708;2023-07-29T01:34:34;99099.75;;;22.09;59.43
2681;BME280;1350;42.134;24.708;2023-07-29T01:37:02;99106.84;;;22.18;59.47
2681;BME280;1350;42.134;24.708;2023-07-29T01:39:32;99102.00;;;22.37;59.08
2681;BME280;1350;42.134;24.708;2023-07-29T01:42:02;99104.88;;;22.28;59.37
2681;BME280;1350;42.134;24.708;2023-07-29T01:44:29;99099.28;;;22.21;59.56
2681;BME280;1350;42.134;24.708;2023-07-29T01:46:56;99095.56;;;22.22;60.01
2681;BME280;1350;42.134;24.708;2023-07-29T01:49:23;99107.84;;;22.09;60.63
2681;BME280;1350;42.134;24.708;2023-07-29T01:51:50;99112.56;;;21.73;61.22
2681;BME280;1350;42.134;24.708;2023-07-29T01:54:16;99110.44;;;21.77;61.71
2681;BME280;1350;42.134;24.708;2023-07-29T01:56:43;99113.00;;;21.60;62.37
2681;BME280;1350;42.134;24.708;2023-07-29T01:59:11;99115.03;;;21.58;63.81
2681;BME280;1350;42.134;24.708;2023-07-29T02:01:39;99114.91;;;21.68;63.73
2681;BME280;1350;42.134;24.708;2023-07-29T02:04:06;99104.53;;;21.81;63.52
2681;BME280;1350;42.134;24.708;2023-07-29T02:06:33;99112.47;;;21.83;63.73
2681;BME280;1350;42.134;24.708;2023-07-29T02:09:00;99111.44;;;21.76;63.92
2681;BME280;1350;42.134;24.708;2023-07-29T02:11:26;99117.88;;;21.83;64.36
2681;BME280;1350;42.134;24.708;2023-07-29T02:13:53;99118.03;;;21.81;64.82
2681;BME280;1350;42.134;24.708;2023-07-29T02:16:22;99136.47;;;21.68;65.81
2681;BME280;1350;42.134;24.708;2023-07-29T02:18:49;99139.84;;;21.36;67.64
2681;BME280;1350;42.134;24.708;2023-07-29T02:21:16;99135.34;;;21.19;69.46
2681;BME280;1350;42.134;24.708;2023-07-29T02:23:43;99130.50;;;21.23;70.26
2681;BME280;1350;42.134;24.708;2023-07-29T02:26:09;99124.63;;;21.27;70.86
2681;BME280;1350;42.134;24.708;2023-07-29T02:28:36;99121.53;;;21.22;71.66
2681;BME280;1350;42.134;24.708;2023-07-29T02:31:14;99121.13;;;21.35;71.76
2681;BME280;1350;42.134;24.708;2023-07-29T02:33:43;99127.72;;;21.40;71.60
2681;BME280;1350;42.134;24.708;2023-07-29T02:36:11;99125.94;;;21.49;70.38
2681;BME280;1350;42.134;24.708;2023-07-29T02:38:38;99129.13;;;21.44;70.86
2681;BME280;1350;42.134;24.708;2023-07-29T02:41:05;99125.09;;;21.48;71.38
2681;BME280;1350;42.134;24.708;2023-07-29T02:43:34;99130.84;;;21.53;70.89
2681;BME280;1350;42.134;24.708;2023-07-29T02:46:00;99131.28;;;21.15;71.49
2681;BME280;1350;42.134;24.708;2023-07-29T02:48:27;99137.97;;;21.11;72.16
2681;BME280;1350;42.134;24.708;2023-07-29T02:50:55;99136.94;;;21.04;72.93
2681;BME280;1350;42.134;24.708;2023-07-29T02:53:22;99133.84;;;20.82;73.44
2681;BME280;1350;42.134;24.708;2023-07-29T02:55:49;99133.06;;;20.89;73.83
2681;BME280;1350;42.134;24.708;2023-07-29T02:58:16;99133.59;;;21.10;73.42
2681;BME280;1350;42.134;24.708;2023-07-29T03:00:43;99137.34;;;21.17;73.25
2681;BME280;1350;42.134;24.708;2023-07-29T03:03:09;99131.78;;;21.19;73.12
2681;BME280;1350;42.134;24.708;2023-07-29T03:05:36;99134.25;;;21.30;72.53
2681;BME280;1350;42.134;24.708;2023-07-29T03:08:05;99133.59;;;21.36;72.75
2681;BME280;1350;42.134;24.708;2023-07-29T03:10:34;99138.84;;;21.37;72.71
2681;BME280;1350;42.134;24.708;2023-07-29T03:13:01;99140.00;;;21.35;72.62
2681;BME280;1350;42.134;24.708;2023-07-29T03:15:28;99140.09;;;21.00;73.93
2681;BME280;1350;42.134;24.708;2023-07-29T03:17:55;99139.47;;;20.71;74.37
2681;BME280;1350;42.134;24.708;2023-07-29T03:20:21;99145.94;;;20.60;75.06
2681;BME280;1350;42.134;24.708;2023-07-29T03:22:48;99146.47;;;20.64;76.31
2681;BME280;1350;42.134;24.708;2023-07-29T03:25:16;99148.47;;;20.79;75.18
2681;BME280;1350;42.134;24.708;2023-07-29T03:27:43;99143.25;;;20.95;74.72
2681;BME280;1350;42.134;24.708;2023-07-29T03:30:10;99159.66;;;21.02;73.89
2681;BME280;1350;42.134;24.708;2023-07-29T03:32:43;99162.69;;;21.24;73.23
2681;BME280;1350;42.134;24.708;2023-07-29T03:35:10;99157.00;;;21.27;72.59
2681;BME280;1350;42.134;24.708;2023-07-29T03:37:37;99156.44;;;21.24;72.46
2681;BME280;1350;42.134;24.708;2023-07-29T03:40:05;99166.09;;;21.26;72.62
2681;BME280;1350;42.134;24.708;2023-07-29T03:42:33;99159.06;;;21.33;72.06
2681;BME280;1350;42.134;24.708;2023-07-29T03:45:00;99164.53;;;21.24;72.82
2681;BME280;1350;42.134;24.708;2023-07-29T03:47:27;99168.72;;;21.18;72.33
2681;BME280;1350;42.134;24.708;2023-07-29T03:49:54;99164.63;;;21.14;73.64
2681;BME280;1350;42.134;24.708;2023-07-29T03:52:20;99170.72;;;21.16;74.52
2681;BME280;1350;42.134;24.708;2023-07-29T03:54:47;99169.13;;;21.49;72.74
2681;BME280;1350;42.134;24.708;2023-07-29T03:57:14;99172.53;;;21.33;72.71
2681;BME280;1350;42.134;24.708;2023-07-29T03:59:42;99178.09;;;21.32;72.98
2681;BME280;1350;42.134;24.708;2023-07-29T04:02:09;99186.59;;;21.45;72.68
2681;BME280;1350;42.134;24.708;2023-07-29T04:04:35;99182.63;;;21.75;72.00
2681;BME280;1350;42.134;24.708;2023-07-29T04:07:02;99187.19;;;22.08;70.05
2681;BME280;1350;42.134;24.708;2023-07-29T04:09:29;99189.16;;;22.39;68.30
2681;BME280;1350;42.134;24.708;2023-07-29T04:11:56;99193.47;;;22.58;67.19
2681;BME280;1350;42.134;24.708;2023-07-29T04:14:23;99193.69;;;22.72;66.21
2681;BME280;1350;42.134;24.708;2023-07-29T04:16:51;99193.00;;;22.94;65.18
2681;BME280;1350;42.134;24.708;2023-07-29T04:19:18;99204.03;;;23.09;64.86
2681;BME280;1350;42.134;24.708;2023-07-29T04:21:44;99201.69;;;23.14;64.45
2681;BME280;1350;42.134;24.708;2023-07-29T04:24:11;99204.56;;;23.12;64.48
2681;BME280;1350;42.134;24.708;2023-07-29T04:26:38;99193.38;;;23.23;64.44
2681;BME280;1350;42.134;24.708;2023-07-29T04:29:05;99198.13;;;23.54;63.32
2681;BME280;1350;42.134;24.708;2023-07-29T04:31:32;99205.34;;;23.77;62.17
2681;BME280;1350;42.134;24.708;2023-07-29T04:34:00;99207.59;;;23.66;61.61
2681;BME280;1350;42.134;24.708;2023-07-29T04:36:27;99204.31;;;24.02;60.63
2681;BME280;1350;42.134;24.708;2023-07-29T04:38:54;99203.69;;;24.31;59.76
2681;BME280;1350;42.134;24.708;2023-07-29T04:41:21;99205.38;;;24.32;59.52
2681;BME280;1350;42.134;24.708;2023-07-29T04:43:47;99203.69;;;24.31;59.34
2681;BME280;1350;42.134;24.708;2023-07-29T04:46:15;99206.97;;;24.57;58.61
2681;BME280;1350;42.134;24.708;2023-07-29T04:48:42;99205.84;;;24.74;58.04
2681;BME280;1350;42.134;24.708;2023-07-29T04:51:10;99203.84;;;24.99;57.33
2681;BME280;1350;42.134;24.708;2023-07-29T04:53:37;99204.03;;;25.20;56.33
2681;BME280;1350;42.134;24.708;2023-07-29T04:56:04;99198.34;;;25.29;55.73
2681;BME280;1350;42.134;24.708;2023-07-29T04:58:31;99200.69;;;25.32;55.85
2681;BME280;1350;42.134;24.708;2023-07-29T05:01:00;99199.59;;;25.64;55.25
2681;BME280;1350;42.134;24.708;2023-07-29T05:03:28;99207.66;;;25.72;55.41
2681;BME280;1350;42.134;24.708;2023-07-29T05:05:54;99208.91;;;25.98;55.39
2681;BME280;1350;42.134;24.708;2023-07-29T05:08:23;99211.84;;;26.26;53.84
2681;BME280;1350;42.134;24.708;2023-07-29T05:10:51;99214.16;;;26.58;53.03
2681;BME280;1350;42.134;24.708;2023-07-29T05:13:18;99211.22;;;26.74;52.34
2681;BME280;1350;42.134;24.708;2023-07-29T05:15:44;99212.63;;;26.85;52.10
2681;BME280;1350;42.134;24.708;2023-07-29T05:18:11;99217.72;;;26.94;52.10
2681;BME280;1350;42.134;24.708;2023-07-29T05:20:38;99221.41;;;26.87;51.70
2681;BME280;1350;42.134;24.708;2023-07-29T05:23:05;99225.16;;;27.21;50.86
2681;BME280;1350;42.134;24.708;2023-07-29T05:25:33;99210.91;;;27.68;50.10
2681;BME280;1350;42.134;24.708;2023-07-29T05:28:00;99221.84;;;27.95;49.61
2681;BME280;1350;42.134;24.708;2023-07-29T05:30:28;99221.03;;;27.74;49.22
2681;BME280;1350;42.134;24.708;2023-07-29T05:32:56;99217.94;;;27.56;50.33
2681;BME280;1350;42.134;24.708;2023-07-29T05:35:24;99216.59;;;27.94;49.08
2681;BME280;1350;42.134;24.708;2023-07-29T05:37:51;99216.59;;;28.28;48.58
2681;BME280;1350;42.134;24.708;2023-07-29T05:40:17;99227.09;;;28.65;47.41
2681;BME280;1350;42.134;24.708;2023-07-29T05:42:46;99228.38;;;28.69;47.11
2681;BME280;1350;42.134;24.708;2023-07-29T05:45:13;99231.19;;;28.89;47.61
2681;BME280;1350;42.134;24.708;2023-07-29T05:47:41;99231.13;;;29.23;47.02
2681;BME280;1350;42.134;24.708;2023-07-29T05:50:08;99233.44;;;29.58;45.56
2681;BME280;1350;42.134;24.708;2023-07-29T05:52:36;99218.97;;;29.65;45.75
2681;BME280;1350;42.134;24.708;2023-07-29T05:55:03;99224.66;;;29.83;45.46
2681;BME280;1350;42.134;24.708;2023-07-29T05:57:30;99224.19;;;29.99;43.94
2681;BME280;1350;42.134;24.708;2023-07-29T05:59:58;99223.59;;;29.90;44.58
2681;BME280;1350;42.134;24.708;2023-07-29T06:02:25;99218.50;;;30.26;43.29
2681;BME280;1350;42.134;24.708;2023-07-29T06:04:52;99223.06;;;30.52;43.22
2681;BME280;1350;42.134;24.708;2023-07-29T06:07:19;99221.44;;;30.95;42.86
2681;BME280;1350;42.134;24.708;2023-07-29T06:09:46;99228.97;;;30.49;42.66
2681;BME280;1350;42.134;24.708;2023-07-29T06:12:12;99223.22;;;30.57;43.20
2681;BME280;1350;42.134;24.708;2023-07-29T06:14:39;99220.59;;;30.94;42.45
2681;BME280;1350;42.134;24.708;2023-07-29T06:17:07;99221.72;;;31.18;41.87
2681;BME280;1350;42.134;24.708;2023-07-29T06:19:36;99221.84;;;31.61;40.78
2681;BME280;1350;42.134;24.708;2023-07-29T06:22:04;99226.97;;;31.51;41.22
2681;BME280;1350;42.134;24.708;2023-07-29T06:24:31;99233.47;;;31.87;40.64
2681;BME280;1350;42.134;24.708;2023-07-29T06:26:58;99229.63;;;32.13;40.37
2681;BME280;1350;42.134;24.708;2023-07-29T06:29:24;99219.66;;;32.18;40.24
2681;BME280;1350;42.134;24.708;2023-07-29T06:31:51;99221.34;;;31.46;40.59
2681;BME280;1350;42.134;24.708;2023-07-29T06:34:21;99216.75;;;31.40;40.63
2681;BME280;1350;42.134;24.708;2023-07-29T06:36:47;99215.97;;;31.82;40.53
2681;BME280;1350;42.134;24.708;2023-07-29T06:39:14;99217.13;;;32.17;39.27
2681;BME280;1350;42.134;24.708;2023-07-29T06:41:41;99216.56;;;32.51;38.82
2681;BME280;1350;42.134;24.708;2023-07-29T06:44:07;99220.56;;;32.12;38.30
2681;BME280;1350;42.134;24.708;2023-07-29T06:46:34;99211.69;;;32.53;38.40
2681;BME280;1350;42.134;24.708;2023-07-29T06:49:01;99215.88;;;32.92;37.38
2681;BME280;1350;42.134;24.708;2023-07-29T06:51:29;99212.03;;;33.40;37.03
2681;BME280;1350;42.134;24.708;2023-07-29T06:53:59;99212.91;;;33.64;36.39
2681;BME280;1350;42.134;24.708;2023-07-29T06:56:26;99219.97;;;33.01;36.37
2681;BME280;1350;42.134;24.708;2023-07-29T06:58:53;99216.16;;;32.84;37.21
2681;BME280;1350;42.134;24.708;2023-07-29T07:01:20;99209.09;;;33.35;36.37
2681;BME280;1350;42.134;24.708;2023-07-29T07:03:49;99219.09;;;32.89;36.69
2681;BME280;1350;42.134;24.708;2023-07-29T07:06:15;99214.91;;;33.45;36.32
2681;BME280;1350;42.134;24.708;2023-07-29T07:08:43;99213.72;;;33.53;35.33
2681;BME280;1350;42.134;24.708;2023-07-29T07:11:10;99216.34;;;33.89;35.18
2681;BME280;1350;42.134;24.708;2023-07-29T07:13:37;99209.72;;;34.24;34.26
2681;BME280;1350;42.134;24.708;2023-07-29T07:16:05;99210.16;;;34.68;33.97
2681;BME280;1350;42.134;24.708;2023-07-29T07:18:32;99203.19;;;34.88;34.22
2681;BME280;1350;42.134;24.708;2023-07-29T07:20:59;99191.41;;;34.30;34.31
2681;BME280;1350;42.134;24.708;2023-07-29T07:23:26;99202.28;;;34.60;34.30
2681;BME280;1350;42.134;24.708;2023-07-29T07:25:54;99195.00;;;34.42;34.72
2681;BME280;1350;42.134;24.708;2023-07-29T07:28:20;99193.22;;;33.37;35.59
2681;BME280;1350;42.134;24.708;2023-07-29T07:30:47;99185.78;;;33.79;35.03
2681;BME280;1350;42.134;24.708;2023-07-29T07:33:14;99184.56;;;33.86;34.92
2681;BME280;1350;42.134;24.708;2023-07-29T07:35:41;99184.09;;;34.36;34.20
2681;BME280;1350;42.134;24.708;2023-07-29T07:38:08;99186.94;;;34.64;34.60
2681;BME280;1350;42.134;24.708;2023-07-29T07:40:35;99180.13;;;34.55;34.56
2681;BME280;1350;42.134;24.708;2023-07-29T07:43:03;99183.34;;;35.03;34.53
2681;BME280;1350;42.134;24.708;2023-07-29T07:45:32;99175.28;;;35.29;34.54
2681;BME280;1350;42.134;24.708;2023-07-29T07:47:58;99170.50;;;35.53;34.08
2681;BME280;1350;42.134;24.708;2023-07-29T07:50:25;99169.56;;;35.03;34.49
2681;BME280;1350;42.134;24.708;2023-07-29T07:52:55;99164.94;;;33.83;34.86
2681;BME280;1350;42.134;24.708;2023-07-29T07:55:24;99160.38;;;34.35;35.53
2681;BME280;1350;42.134;24.708;2023-07-29T07:57:51;99166.97;;;34.45;34.79
2681;BME280;1350;42.134;24.708;2023-07-29T08:00:20;99161.03;;;34.13;34.93
2681;BME280;1350;42.134;24.708;2023-07-29T08:02:46;99149.34;;;34.46;34.81
2681;BME280;1350;42.134;24.708;2023-07-29T08:05:13;99148.25;;;34.59;35.17
2681;BME280;1350;42.134;24.708;2023-07-29T08:07:40;99150.84;;;34.14;35.86
2681;BME280;1350;42.134;24.708;2023-07-29T08:10:07;99141.25;;;34.68;35.91
2681;BME280;1350;42.134;24.708;2023-07-29T08:12:34;99148.72;;;34.95;34.59
2681;BME280;1350;42.134;24.708;2023-07-29T08:15:01;99144.66;;;34.98;35.13
2681;BME280;1350;42.134;24.708;2023-07-29T08:17:30;99143.97;;;35.35;34.04
2681;BME280;1350;42.134;24.708;2023-07-29T08:19:57;99142.06;;;35.36;34.69
2681;BME280;1350;42.134;24.708;2023-07-29T08:22:24;99143.06;;;35.18;34.01
2681;BME280;1350;42.134;24.708;2023-07-29T08:24:50;99135.63;;;35.47;34.31
2681;BME280;1350;42.134;24.708;2023-07-29T08:27:17;99133.94;;;35.79;34.34
2681;BME280;1350;42.134;24.708;2023-07-29T08:29:44;99136.81;;;35.84;34.26
2681;BME280;1350;42.134;24.708;2023-07-29T08:32:11;99134.78;;;35.80;34.19
2681;BME280;1350;42.134;24.708;2023-07-29T08:34:39;99124.06;;;36.00;33.88
2681;BME280;1350;42.134;24.708;2023-07-29T08:37:06;99124.16;;;36.48;33.44
2681;BME280;1350;42.134;24.708;2023-07-29T08:39:33;99127.63;;;37.08;32.98
2681;BME280;1350;42.134;24.708;2023-07-29T08:42:02;99122.06;;;37.61;31.98
2681;BME280;1350;42.134;24.708;2023-07-29T08:44:34;99119.56;;;38.53;31.17
2681;BME280;1350;42.134;24.708;2023-07-29T08:47:02;99109.19;;;38.90;30.47
2681;BME280;1350;42.134;24.708;2023-07-29T08:49:29;99104.94;;;37.69;31.62
2681;BME280;1350;42.134;24.708;2023-07-29T08:51:58;99103.22;;;37.27;31.85
2681;BME280;1350;42.134;24.708;2023-07-29T08:54:25;99102.22;;;36.84;31.55
2681;BME280;1350;42.134;24.708;2023-07-29T08:56:52;99105.63;;;36.05;32.71
2681;BME280;1350;42.134;24.708;2023-07-29T08:59:20;99108.50;;;36.53;31.88
2681;BME280;1350;42.134;24.708;2023-07-29T09:01:47;99103.22;;;36.52;31.75
2681;BME280;1350;42.134;24.708;2023-07-29T09:04:14;99106.81;;;36.31;31.94
2681;BME280;1350;42.134;24.708;2023-07-29T09:06:43;99108.94;;;35.86;32.57
2681;BME280;1350;42.134;24.708;2023-07-29T09:09:12;99097.41;;;36.10;32.23
2681;BME280;1350;42.134;24.708;2023-07-29T09:11:39;99095.56;;;36.37;32.07
2681;BME280;1350;42.134;24.708;2023-07-29T09:14:06;99099.03;;;36.97;32.17
2681;BME280;1350;42.134;24.708;2023-07-29T09:16:33;99092.22;;;36.35;32.53
2681;BME280;1350;42.134;24.708;2023-07-29T09:19:01;99084.50;;;36.59;32.00
2681;BME280;1350;42.134;24.708;2023-07-29T09:21:29;99079.97;;;36.74;31.02
2681;BME280;1350;42.134;24.708;2023-07-29T09:23:56;99069.44;;;35.85;32.20
2681;BME280;1350;42.134;24.708;2023-07-29T09:26:25;99079.84;;;35.45;32.11
2681;BME280;1350;42.134;24.708;2023-07-29T09:28:53;99068.19;;;34.65;32.15
2681;BME280;1350;42.134;24.708;2023-07-29T09:31:21;99069.25;;;34.36;32.69
2681;BME280;1350;42.134;24.708;2023-07-29T09:33:48;99062.63;;;35.54;31.59
2681;BME280;1350;42.134;24.708;2023-07-29T09:36:15;99065.59;;;36.08;31.27
2681;BME280;1350;42.134;24.708;2023-07-29T09:38:44;99054.81;;;36.49;30.39
2681;BME280;1350;42.134;24.708;2023-07-29T09:41:12;99050.25;;;36.86;29.35
2681;BME280;1350;42.134;24.708;2023-07-29T09:43:40;99051.22;;;37.34;29.56
2681;BME280;1350;42.134;24.708;2023-07-29T09:46:07;99042.88;;;37.23;29.68
2681;BME280;1350;42.134;24.708;2023-07-29T09:48:35;99042.94;;;37.02;29.84
2681;BME280;1350;42.134;24.708;2023-07-29T09:51:09;99037.88;;;36.94;30.62
2681;BME280;1350;42.134;24.708;2023-07-29T09:53:39;99038.34;;;36.59;31.49
2681;BME280;1350;42.134;24.708;2023-07-29T09:56:06;99038.44;;;36.43;32.09
2681;BME280;1350;42.134;24.708;2023-07-29T09:58:33;99040.41;;;36.74;31.53
2681;BME280;1350;42.134;24.708;2023-07-29T10:01:02;99040.75;;;37.04;30.60
2681;BME280;1350;42.134;24.708;2023-07-29T10:03:29;99039.75;;;36.62;30.48
2681;BME280;1350;42.134;24.708;2023-07-29T10:05:59;99032.97;;;37.01;30.56
2681;BME280;1350;42.134;24.708;2023-07-29T10:08:28;99035.34;;;37.56;30.65
2681;BME280;1350;42.134;24.708;2023-07-29T10:10:58;99035.56;;;37.91;31.81
2681;BME280;1350;42.134;24.708;2023-07-29T10:13:26;99034.38;;;38.28;30.40
2681;BME280;1350;42.134;24.708;2023-07-29T10:15:53;99036.53;;;38.11;30.12
2681;BME280;1350;42.134;24.708;2023-07-29T10:18:23;99036.44;;;38.58;30.40
2681;BME280;1350;42.134;24.708;2023-07-29T10:20:51;99024.22;;;37.51;29.39
2681;BME280;1350;42.134;24.708;2023-07-29T10:23:18;99031.88;;;36.75;30.39
2681;BME280;1350;42.134;24.708;2023-07-29T10:25:50;99029.00;;;36.65;30.21
2681;BME280;1350;42.134;24.708;2023-07-29T10:28:24;99027.78;;;37.41;30.73
2681;BME280;1350;42.134;24.708;2023-07-29T10:30:52;99020.97;;;37.59;30.25
2681;BME280;1350;42.134;24.708;2023-07-29T10:33:18;99021.44;;;37.46;30.01
2681;BME280;1350;42.134;24.708;2023-07-29T10:35:47;99021.56;;;37.66;28.87
2681;BME280;1350;42.134;24.708;2023-07-29T10:38:14;99011.94;;;36.73;28.40
2681;BME280;1350;42.134;24.708;2023-07-29T10:40:46;99004.16;;;36.97;29.44
2681;BME280;1350;42.134;24.708;2023-07-29T10:43:19;98996.94;;;37.28;29.07
2681;BME280;1350;42.134;24.708;2023-07-29T10:45:50;99000.44;;;37.50;28.75
2681;BME280;1350;42.134;24.708;2023-07-29T10:51:28;98994.97;;;37.23;29.05
2681;BME280;1350;42.134;24.708;2023-07-29T10:53:57;98995.81;;;37.65;28.40
2681;BME280;1350;42.134;24.708;2023-07-29T10:56:28;98988.03;;;37.20;28.45
2681;BME280;1350;42.134;24.708;2023-07-29T10:58:57;98975.91;;;36.15;28.89
2681;BME280;1350;42.134;24.708;2023-07-29T11:01:28;98978.59;;;36.05;29.60
2681;BME280;1350;42.134;24.708;2023-07-29T11:07:18;98977.63;;;35.95;29.44
2681;BME280;1350;42.134;24.708;2023-07-29T11:09:56;98976.53;;;35.96;29.41
2681;BME280;1350;42.134;24.708;2023-07-29T11:12:34;98972.88;;;35.90;29.01
2681;BME280;1350;42.134;24.708;2023-07-29T11:15:04;98966.91;;;35.98;29.31
2681;BME280;1350;42.134;24.708;2023-07-29T11:17:32;98967.97;;;35.97;28.63
2681;BME280;1350;42.134;24.708;2023-07-29T11:20:01;98954.44;;;35.96;29.71
2681;BME280;1350;42.134;24.708;2023-07-29T11:22:30;98960.44;;;36.36;28.49
2681;BME280;1350;42.134;24.708;2023-07-29T11:24:57;98955.00;;;35.76;28.11
2681;BME280;1350;42.134;24.708;2023-07-29T11:27:23;98945.31;;;35.73;28.86
2681;BME280;1350;42.134;24.708;2023-07-29T11:29:50;98944.91;;;36.08;29.44
2681;BME280;1350;42.134;24.708;2023-07-29T11:32:22;98950.22;;;35.88;28.02
2681;BME280;1350;42.134;24.708;2023-07-29T11:34:49;98952.06;;;36.04;28.93
2681;BME280;1350;42.134;24.708;2023-07-29T11:37:16;98948.88;;;36.39;28.37
2681;BME280;1350;42.134;24.708;2023-07-29T11:39:44;98947.41;;;36.58;28.30
2681;BME280;1350;42.134;24.708;2023-07-29T11:42:12;98957.28;;;36.80;28.23
2681;BME280;1350;42.134;24.708;2023-07-29T11:44:38;98941.28;;;36.56;27.38
2681;BME280;1350;42.134;24.708;2023-07-29T11:47:06;98939.84;;;36.48;27.86
2681;BME280;1350;42.134;24.708;2023-07-29T11:49:33;98937.72;;;36.60;26.89
2681;BME280;1350;42.134;24.708;2023-07-29T11:52:00;98928.31;;;36.56;27.54
2681;BME280;1350;42.134;24.708;2023-07-29T11:54:27;98925.50;;;36.78;27.00
2681;BME280;1350;42.134;24.708;2023-07-29T11:56:55;98923.91;;;36.87;26.61
2681;BME280;1350;42.134;24.708;2023-07-29T11:59:23;98919.50;;;36.59;27.54
2681;BME280;1350;42.134;24.708;2023-07-29T12:01:49;98920.66;;;36.37;27.49
2681;BME280;1350;42.134;24.708;2023-07-29T12:04:16;98918.03;;;36.25;28.09
2681;BME280;1350;42.134;24.708;2023-07-29T12:06:43;98916.47;;;36.61;27.20
2681;BME280;1350;42.134;24.708;2023-07-29T12:09:10;98903.44;;;36.56;27.11
2681;BME280;1350;42.134;24.708;2023-07-29T12:11:38;98904.75;;;36.49;27.06
2681;BME280;1350;42.134;24.708;2023-07-29T12:14:08;98906.09;;;35.93;27.86
2681;BME280;1350;42.134;24.708;2023-07-29T12:16:40;98898.56;;;36.10;27.49
2681;BME280;1350;42.134;24.708;2023-07-29T12:19:07;98892.78;;;36.12;28.02
2681;BME280;1350;42.134;24.708;2023-07-29T12:21:35;98905.06;;;35.99;27.33
2681;BME280;1350;42.134;24.708;2023-07-29T12:24:02;98898.38;;;36.22;27.52
2681;BME280;1350;42.134;24.708;2023-07-29T12:26:29;98887.28;;;35.90;28.79
2681;BME280;1350;42.134;24.708;2023-07-29T12:28:56;98886.50;;;35.95;29.54
2681;BME280;1350;42.134;24.708;2023-07-29T12:31:31;98881.09;;;35.56;28.63
2681;BME280;1350;42.134;24.708;2023-07-29T12:33:58;98876.63;;;35.55;29.65
2681;BME280;1350;42.134;24.708;2023-07-29T12:36:28;98879.13;;;34.81;28.91
2681;BME280;1350;42.134;24.708;2023-07-29T12:39:06;98875.34;;;34.37;29.50
2681;BME280;1350;42.134;24.708;2023-07-29T12:41:33;98867.25;;;34.97;29.44
2681;BME280;1350;42.134;24.708;2023-07-29T12:43:59;98878.22;;;34.59;29.66
2681;BME280;1350;42.134;24.708;2023-07-29T12:46:30;98874.63;;;34.42;29.54
2681;BME280;1350;42.134;24.708;2023-07-29T12:48:57;98867.38;;;34.07;29.63
2681;BME280;1350;42.134;24.708;2023-07-29T12:51:23;98875.72;;;34.41;29.45
2681;BME280;1350;42.134;24.708;2023-07-29T12:53:50;98874.59;;;34.25;28.83
2681;BME280;1350;42.134;24.708;2023-07-29T12:56:17;98868.38;;;34.01;29.01
2681;BME280;1350;42.134;24.708;2023-07-29T12:58:44;98873.47;;;34.38;29.49
2681;BME280;1350;42.134;24.708;2023-07-29T13:01:10;98866.88;;;34.88;28.72
2681;BME280;1350;42.134;24.708;2023-07-29T13:03:43;98875.25;;;35.15;28.57
2681;BME280;1350;42.134;24.708;2023-07-29T13:06:10;98876.28;;;35.09;28.70
2681;BME280;1350;42.134;24.708;2023-07-29T13:08:37;98869.81;;;34.49;28.07
2681;BME280;1350;42.134;24.708;2023-07-29T13:11:04;98877.69;;;35.11;28.15
2681;BME280;1350;42.134;24.708;2023-07-29T13:13:31;98878.69;;;35.43;27.94
2681;BME280;1350;42.134;24.708;2023-07-29T13:15:58;98877.91;;;34.55;27.80
2681;BME280;1350;42.134;24.708;2023-07-29T13:18:25;98881.97;;;34.86;28.21
2681;BME280;1350;42.134;24.708;2023-07-29T13:20:53;98878.59;;;34.17;28.27